Time;durP1;ratioP1;P1;durP2;ratioP2;P2;SDS_P1;SDS_P2;PMS_P1;PMS_P2;Temp;Humidity;BMP_temperature;BMP_pressure;BME280_temperature;BME280_humidity;BME280_pressure;Samples;Min_cycle;Max_cycle;Signal;HPM_P1;HPM_P2
2024/03/09 00:01:29;;;;;;;25.30;16.30;;;;;;;8.83;50.48;96382.31;5031979;28;21028;-71
2024/03/09 00:03:56;;;;;;;26.90;16.80;;;;;;;8.80;50.40;96382.63;5024539;28;20420;-71
2024/03/09 00:06:21;;;;;;;25.23;16.10;;;;;;;8.88;50.24;96379.22;5025658;28;20443;-71
2024/03/09 00:08:47;;;;;;;28.83;15.40;;;;;;;8.84;49.88;96385.75;5034061;28;20466;-72
2024/03/09 00:11:14;;;;;;;25.83;16.20;;;;;;;8.83;50.29;96387.53;5021317;28;20633;-73
2024/03/09 00:13:41;;;;;;;26.23;16.30;;;;;;;8.79;50.65;96383.63;5027762;28;20911;-70
2024/03/09 00:16:07;;;;;;;25.20;15.30;;;;;;;8.82;50.00;96378.06;5030457;28;20447;-69
2024/03/09 00:18:33;;;;;;;26.07;16.23;;;;;;;8.85;50.36;96382.16;5031420;28;20512;-70
2024/03/09 00:20:58;;;;;;;24.67;15.20;;;;;;;8.84;50.17;96383.13;5033676;28;20424;-73
2024/03/09 00:23:26;;;;;;;24.00;15.70;;;;;;;8.80;50.11;96384.44;5020085;28;20685;-72
2024/03/09 00:25:52;;;;;;;24.30;16.37;;;;;;;8.72;50.99;96387.84;5019702;28;20252;-69
2024/03/09 00:28:18;;;;;;;30.53;17.40;;;;;;;8.73;50.35;96379.03;5022209;28;20470;-72
2024/03/09 00:30:43;;;;;;;28.40;15.60;;;;;;;8.80;50.69;96381.81;5024731;28;21054;-70
2024/03/09 00:33:09;;;;;;;20.93;14.67;;;;;;;8.83;50.89;96381.50;5019623;28;20176;-71
2024/03/09 00:35:34;;;;;;;26.97;16.10;;;;;;;8.86;50.61;96383.78;5028745;28;20208;-70
2024/03/09 00:38:00;;;;;;;23.00;15.27;;;;;;;8.63;51.06;96387.00;5021176;28;20185;-71
2024/03/09 00:40:29;;;;;;;24.20;15.70;;;;;;;8.70;50.90;96384.59;5021075;28;20219;-71
2024/03/09 00:42:56;;;;;;;23.37;15.63;;;;;;;8.74;51.37;96391.94;5018921;28;20184;-71
2024/03/09 00:45:22;;;;;;;25.20;15.57;;;;;;;8.72;51.13;96391.28;5029703;28;21145;-70
2024/03/09 00:47:48;;;;;;;23.27;14.67;;;;;;;8.50;51.84;96384.03;5039062;28;20449;-73
2024/03/09 00:50:15;;;;;;;31.13;15.27;;;;;;;8.54;51.37;96374.91;5032975;28;20513;-72
2024/03/09 00:52:41;;;;;;;24.17;15.70;;;;;;;8.39;52.27;96366.84;5028635;28;20172;-70
2024/03/09 00:55:10;;;;;;;22.77;15.40;;;;;;;8.54;51.76;96364.47;5029562;28;21006;-70
2024/03/09 00:57:42;;;;;;;25.27;15.10;;;;;;;8.58;51.32;96366.59;5029267;28;20418;-72
2024/03/09 01:00:11;;;;;;;27.07;14.50;;;;;;;8.62;51.18;96361.88;5025600;28;20501;-70
2024/03/09 01:02:41;;;;;;;25.30;17.10;;;;;;;8.52;51.56;96351.56;5027734;28;20425;-70
2024/03/09 01:05:07;;;;;;;22.37;14.17;;;;;;;8.54;52.28;96349.59;5033801;28;20457;-70
2024/03/09 01:07:34;;;;;;;25.43;14.50;;;;;;;8.57;51.94;96356.28;5032055;28;20438;-73
2024/03/09 01:10:00;;;;;;;24.93;15.87;;;;;;;8.54;51.37;96348.81;5035524;28;20447;-71
2024/03/09 01:12:28;;;;;;;26.93;16.50;;;;;;;8.60;51.49;96343.75;5029225;28;20999;-70
2024/03/09 01:14:54;;;;;;;25.17;15.90;;;;;;;8.66;51.59;96339.69;5039438;28;20668;-72
2024/03/09 01:17:23;;;;;;;25.43;15.90;;;;;;;8.69;51.15;96336.75;5032792;28;20426;-72
2024/03/09 01:19:50;;;;;;;23.47;15.20;;;;;;;8.73;50.90;96332.81;5020342;28;20505;-71
2024/03/09 01:22:22;;;;;;;25.80;16.00;;;;;;;8.69;51.07;96330.69;5033971;28;20818;-71
2024/03/09 01:24:49;;;;;;;30.93;15.67;;;;;;;8.68;51.36;96335.13;5019925;28;20418;-72
2024/03/09 01:27:15;;;;;;;30.83;16.10;;;;;;;8.69;51.56;96341.97;5027361;28;20514;-71
2024/03/09 01:29:46;;;;;;;23.10;15.17;;;;;;;8.68;51.30;96340.34;5036190;28;20417;-71
2024/03/09 01:32:15;;;;;;;24.10;14.70;;;;;;;8.55;51.51;96347.84;5028827;28;20203;-68
2024/03/09 01:34:41;;;;;;;23.87;15.60;;;;;;;8.60;51.30;96354.22;5028533;28;20428;-73
2024/03/09 01:37:10;;;;;;;20.73;14.50;;;;;;;8.60;51.34;96353.38;5028792;28;20431;-71
2024/03/09 01:39:37;;;;;;;23.50;15.23;;;;;;;8.57;51.11;96351.06;5028288;28;20970;-71
2024/03/09 01:42:02;;;;;;;24.40;14.93;;;;;;;8.44;51.89;96352.31;5028551;28;20427;-70
2024/03/09 01:44:27;;;;;;;24.40;15.73;;;;;;;8.43;51.76;96348.09;5028113;28;20826;-71
2024/03/09 01:46:54;;;;;;;27.50;15.30;;;;;;;8.48;51.64;96349.44;5031518;28;20693;-70
2024/03/09 01:49:19;;;;;;;23.93;15.17;;;;;;;8.49;52.08;96340.63;5035681;28;20179;-72
2024/03/09 01:51:47;;;;;;;24.50;15.10;;;;;;;8.35;51.80;96345.47;5034613;28;20437;-73
2024/03/09 01:54:19;;;;;;;21.80;15.37;;;;;;;8.41;52.51;96344.00;5028789;28;20771;-72
2024/03/09 01:56:47;;;;;;;22.77;14.50;;;;;;;8.49;51.93;96351.06;5031583;28;20446;-71
2024/03/09 01:59:15;;;;;;;28.90;15.13;;;;;;;8.54;51.72;96348.81;5032703;28;20454;-73
2024/03/09 02:01:40;;;;;;;24.13;14.60;;;;;;;8.57;51.65;96346.69;5035692;28;20858;-73
2024/03/09 02:04:06;;;;;;;22.10;14.30;;;;;;;8.62;51.65;96340.16;5035840;28;20418;-71
2024/03/09 02:06:32;;;;;;;29.83;14.80;;;;;;;8.68;51.75;96335.13;5031144;28;20230;-72
2024/03/09 02:08:58;;;;;;;22.77;13.83;;;;;;;8.53;51.44;96337.53;5036145;28;20183;-72
2024/03/09 02:11:25;;;;;;;22.93;15.20;;;;;;;8.39;51.89;96336.34;5031937;28;20430;-72
2024/03/09 02:13:51;;;;;;;28.63;16.00;;;;;;;8.48;51.70;96336.38;5031525;28;20418;-71
2024/03/09 02:16:17;;;;;;;21.63;14.40;;;;;;;8.48;52.50;96328.53;5034413;28;20465;-71
2024/03/09 02:18:45;;;;;;;25.00;15.27;;;;;;;8.36;51.98;96323.59;5030889;28;20583;-72
2024/03/09 02:21:12;;;;;;;21.00;13.50;;;;;;;8.41;52.41;96323.94;5028117;28;20454;-72
2024/03/09 02:23:37;;;;;;;22.23;15.03;;;;;;;8.46;52.54;96323.47;5042330;28;20440;-70
2024/03/09 02:26:03;;;;;;;24.00;15.43;;;;;;;8.54;52.00;96317.47;5029696;28;20959;-69
2024/03/09 02:28:29;;;;;;;22.20;14.67;;;;;;;8.58;51.96;96318.75;5035943;28;20194;-70
2024/03/09 02:30:55;;;;;;;23.17;14.90;;;;;;;8.59;52.29;96315.16;5030999;28;20188;-69
2024/03/09 02:33:21;;;;;;;22.37;13.90;;;;;;;8.49;51.79;96306.69;5034251;28;20183;-71
2024/03/09 02:35:47;;;;;;;22.80;14.43;;;;;;;8.33;52.63;96310.06;5037010;28;20207;-69
2024/03/09 02:38:13;;;;;;;25.03;15.57;;;;;;;8.21;53.00;96306.91;5026698;28;20180;-70
2024/03/09 02:40:39;;;;;;;26.20;15.40;;;;;;;8.33;52.85;96308.25;5034112;28;20477;-70
2024/03/09 02:43:04;;;;;;;28.67;15.60;;;;;;;8.38;53.00;96311.19;5027536;28;20414;-71
2024/03/09 02:45:30;;;;;;;22.50;15.30;;;;;;;8.50;52.74;96311.75;5025118;28;20212;-71
2024/03/09 02:47:56;;;;;;;21.70;14.87;;;;;;;8.53;52.46;96305.38;5023773;28;20176;-73
2024/03/09 02:50:24;;;;;;;22.83;14.13;;;;;;;8.56;52.66;96308.47;5031390;28;20270;-71
2024/03/09 02:52:50;;;;;;;22.20;14.07;;;;;;;8.64;52.74;96305.06;5035869;28;20200;-72
2024/03/09 02:55:15;;;;;;;25.17;15.73;;;;;;;8.59;52.46;96302.13;5029955;28;20458;-71
2024/03/09 02:57:41;;;;;;;22.43;15.10;;;;;;;8.65;52.70;96296.25;5038798;28;21121;-71
2024/03/09 03:00:08;;;;;;;28.57;15.30;;;;;;;8.70;52.78;96293.16;5043657;28;20222;-73
2024/03/09 03:05:17;;;;;;;22.60;14.17;;;;;;;8.69;52.13;96283.69;5034782;28;20450;-71
2024/03/09 03:07:43;;;;;;;23.37;15.30;;;;;;;8.57;52.58;96285.78;5032756;28;21123;-71
2024/03/09 03:10:10;;;;;;;27.93;14.73;;;;;;;8.53;52.07;96289.72;5039197;28;20176;-71
2024/03/09 03:12:37;;;;;;;25.83;15.60;;;;;;;8.25;54.28;96274.31;5034016;28;20183;-71
2024/03/09 03:15:07;;;;;;;24.53;15.60;;;;;;;8.43;53.59;96275.00;5031065;28;20635;-71
2024/03/09 03:17:33;;;;;;;23.83;15.10;;;;;;;8.57;53.33;96270.94;5030681;28;20430;-72
2024/03/09 03:19:59;;;;;;;25.73;15.77;;;;;;;8.61;52.92;96274.03;5033727;28;20454;-72
2024/03/09 03:22:24;;;;;;;24.13;15.77;;;;;;;8.70;52.75;96280.09;5030913;28;20432;-70
2024/03/09 03:24:50;;;;;;;21.10;14.53;;;;;;;8.71;52.85;96268.66;5041087;28;20283;-72
2024/03/09 03:27:15;;;;;;;23.90;14.77;;;;;;;8.77;52.80;96262.78;5032768;28;20206;-71
2024/03/09 03:29:41;;;;;;;22.77;14.20;;;;;;;8.80;52.60;96269.47;5033979;28;20297;-73
2024/03/09 03:32:06;;;;;;;19.10;13.47;;;;;;;8.50;53.12;96266.53;5035138;28;20187;-72
2024/03/09 03:34:33;;;;;;;22.30;14.50;;;;;;;8.41;53.61;96257.84;5033160;28;20195;-70
2024/03/09 03:36:59;;;;;;;22.43;13.70;;;;;;;8.59;53.33;96248.09;5030823;28;20290;-71
2024/03/09 03:39:27;;;;;;;22.37;14.03;;;;;;;8.53;53.19;96243.50;5036330;28;20453;-73
2024/03/09 03:41:53;;;;;;;19.80;13.60;;;;;;;8.53;53.68;96232.25;5033463;28;20192;-72
2024/03/09 03:44:19;;;;;;;23.77;15.33;;;;;;;8.53;52.83;96221.81;5027442;28;20437;-71
2024/03/09 03:46:45;;;;;;;24.03;15.43;;;;;;;8.32;53.76;96228.28;5031560;28;20208;-70
2024/03/09 03:49:10;;;;;;;26.70;15.30;;;;;;;8.33;53.70;96229.91;5043479;28;20425;-70
2024/03/09 03:51:36;;;;;;;19.83;13.43;;;;;;;8.19;53.66;96231.38;5008647;28;20187;-73
2024/03/09 03:54:02;;;;;;;24.10;14.97;;;;;;;8.26;53.77;96237.59;5036307;28;20422;-71
2024/03/09 03:56:27;;;;;;;23.17;14.77;;;;;;;8.26;53.56;96242.81;5030625;28;20699;-72
2024/03/09 03:58:53;;;;;;;24.70;15.00;;;;;;;8.25;54.09;96251.59;5030104;28;20196;-72
2024/03/09 04:01:21;;;;;;;24.27;15.50;;;;;;;8.24;53.81;96251.78;5019237;28;20705;-71
2024/03/09 04:03:47;;;;;;;24.90;15.20;;;;;;;8.24;54.31;96239.56;5029427;28;20429;-71
2024/03/09 04:06:13;;;;;;;26.47;16.83;;;;;;;8.43;54.46;96228.00;5026815;28;20535;-71
2024/03/09 04:08:39;;;;;;;24.67;16.10;;;;;;;8.56;54.38;96231.94;5030226;28;20207;-69
2024/03/09 04:11:04;;;;;;;25.97;17.00;;;;;;;8.52;53.96;96233.25;5025102;28;20998;-70
2024/03/09 04:13:30;;;;;;;24.37;15.20;;;;;;;8.52;54.92;96228.00;5031016;28;20239;-72
2024/03/09 04:15:56;;;;;;;29.30;16.57;;;;;;;8.61;54.37;96224.41;5030242;28;20211;-69
2024/03/09 04:18:21;;;;;;;23.57;16.40;;;;;;;8.58;54.79;96204.69;5034857;28;20219;-70
2024/03/09 04:20:47;;;;;;;24.67;16.40;;;;;;;8.70;54.34;96197.31;5028227;28;20191;-71
2024/03/09 04:23:18;;;;;;;25.17;15.73;;;;;;;8.68;54.43;96207.13;5021624;28;20183;-69
2024/03/09 04:25:46;;;;;;;24.80;14.87;;;;;;;8.64;54.66;96208.44;5025901;28;20783;-70
2024/03/09 04:28:20;;;;;;;27.23;15.13;;;;;;;8.42;54.11;96205.47;5033149;28;21304;-71
2024/03/09 04:30:48;;;;;;;26.30;15.83;;;;;;;8.57;54.64;96199.59;5038954;28;20424;-70
2024/03/09 04:33:15;;;;;;;24.70;15.67;;;;;;;8.66;54.72;96196.03;5028473;28;20481;-70
2024/03/09 04:35:47;;;;;;;22.20;14.80;;;;;;;8.74;53.97;96198.63;5026828;28;20450;-70
2024/03/09 04:38:13;;;;;;;28.60;16.40;;;;;;;8.46;54.89;96191.09;5025031;28;20939;-70
2024/03/09 04:40:40;;;;;;;25.20;14.83;;;;;;;8.61;55.09;96187.84;5027789;28;20470;-70
2024/03/09 04:43:05;;;;;;;26.70;15.23;;;;;;;8.74;54.32;96174.31;5026278;28;20472;-71
2024/03/09 04:45:33;;;;;;;27.13;16.57;;;;;;;8.81;54.61;96171.84;5030575;28;20546;-70
2024/03/09 04:47:59;;;;;;;25.00;16.60;;;;;;;8.75;54.52;96163.69;5033655;28;20726;-70
2024/03/09 04:50:28;;;;;;;23.87;15.90;;;;;;;8.64;55.26;96152.75;5034414;28;20430;-70
2024/03/09 04:52:54;;;;;;;20.87;13.40;;;;;;;8.54;55.27;96145.09;5034241;28;20433;-70
2024/03/09 04:55:30;;;;;;;22.93;14.47;;;;;;;8.52;54.56;96140.03;5037473;28;20525;-71
2024/03/09 04:57:56;;;;;;;26.30;15.23;;;;;;;8.63;54.86;96145.91;5038684;28;20432;-71
2024/03/09 05:00:24;;;;;;;25.07;15.13;;;;;;;8.75;54.98;96142.78;5031655;28;20501;-71
2024/03/09 05:02:49;;;;;;;22.33;14.23;;;;;;;8.82;54.13;96135.09;5036900;28;20194;-71
2024/03/09 05:05:19;;;;;;;28.30;15.70;;;;;;;8.89;54.37;96137.84;5029396;28;20442;-70
2024/03/09 05:07:49;;;;;;;27.17;17.40;;;;;;;8.83;53.40;96139.34;5037705;28;20546;-73
2024/03/09 05:10:18;;;;;;;26.00;16.63;;;;;;;8.83;53.46;96138.50;5013001;28;20590;-72
2024/03/09 05:12:53;;;;;;;28.97;17.90;;;;;;;8.74;54.36;96138.53;5028564;28;20422;-73
2024/03/09 05:15:23;;;;;;;23.63;16.00;;;;;;;8.81;53.86;96161.38;5027221;28;20885;-72
2024/03/09 05:17:49;;;;;;;21.10;14.70;;;;;;;8.76;52.98;96174.94;5026077;28;20427;-69
2024/03/09 05:20:20;;;;;;;22.93;15.27;;;;;;;8.68;53.31;96173.16;5028778;28;20811;-72
2024/03/09 05:22:52;;;;;;;23.60;15.40;;;;;;;8.54;53.55;96171.22;5029823;28;20419;-71
2024/03/09 05:25:18;;;;;;;22.90;15.97;;;;;;;8.62;52.70;96176.44;5025927;28;20446;-72
2024/03/09 05:27:45;;;;;;;23.70;15.47;;;;;;;8.61;53.11;96182.63;5028470;28;20480;-71
2024/03/09 05:30:14;;;;;;;34.83;15.23;;;;;;;8.58;52.71;96167.28;5036182;28;20491;-71
2024/03/09 05:32:53;;;;;;;19.60;14.10;;;;;;;8.24;53.15;96178.69;5027598;28;20566;-70
2024/03/09 05:35:26;;;;;;;24.10;14.77;;;;;;;8.23;53.22;96170.06;5023292;28;20450;-72
2024/03/09 05:37:52;;;;;;;19.80;13.70;;;;;;;8.25;53.28;96170.69;5028814;28;20489;-70
2024/03/09 05:40:19;;;;;;;19.23;13.90;;;;;;;8.27;52.57;96173.16;5044425;28;20532;-71
2024/03/09 05:42:47;;;;;;;24.43;13.87;;;;;;;8.13;53.48;96175.44;5026505;28;20845;-71
2024/03/09 05:45:20;;;;;;;24.93;14.47;;;;;;;8.27;52.48;96175.75;5027650;28;20450;-70
2024/03/09 05:47:56;;;;;;;22.33;14.33;;;;;;;8.23;52.41;96164.84;5028634;28;20422;-71
2024/03/09 05:50:22;;;;;;;21.60;14.10;;;;;;;8.24;52.65;96170.88;5032286;28;20422;-71
2024/03/09 05:52:51;;;;;;;21.00;15.33;;;;;;;8.21;53.46;96176.41;5017140;28;20477;-69
2024/03/09 05:55:19;;;;;;;22.07;14.57;;;;;;;8.27;53.58;96173.16;5028166;28;20511;-69
2024/03/09 05:57:48;;;;;;;27.03;15.10;;;;;;;8.15;53.08;96165.66;5028504;28;20462;-70
2024/03/09 06:00:17;;;;;;;21.10;14.53;;;;;;;8.14;53.06;96165.78;5030013;28;20461;-70
2024/03/09 06:02:44;;;;;;;21.80;14.17;;;;;;;8.07;53.71;96176.06;5019285;28;20431;-71
2024/03/09 06:05:10;;;;;;;21.50;14.77;;;;;;;8.17;53.84;96168.09;5023745;28;20450;-71
2024/03/09 06:07:39;;;;;;;23.47;15.20;;;;;;;8.16;52.94;96161.22;5039319;28;20432;-70
2024/03/09 06:10:09;;;;;;;23.17;14.77;;;;;;;8.23;53.28;96166.63;5027625;28;20179;-72
2024/03/09 06:12:35;;;;;;;22.07;14.70;;;;;;;8.31;53.38;96177.09;5027452;28;20434;-70
2024/03/09 06:15:03;;;;;;;22.73;14.97;;;;;;;8.35;53.02;96173.16;5031896;28;20439;-69
2024/03/09 06:17:29;;;;;;;24.47;15.70;;;;;;;8.40;52.76;96164.81;5025083;28;20528;-70
2024/03/09 06:19:55;;;;;;;23.57;15.67;;;;;;;8.67;51.38;96166.31;5026490;28;20468;-69
2024/03/09 06:22:20;;;;;;;22.53;15.03;;;;;;;8.96;51.52;96156.28;5029084;28;20194;-72
2024/03/09 06:24:46;;;;;;;23.20;15.60;;;;;;;9.07;51.30;96161.94;5026922;28;20601;-69
2024/03/09 06:27:13;;;;;;;23.80;14.93;;;;;;;9.09;51.59;96160.97;5026317;28;20204;-72
2024/03/09 06:29:40;;;;;;;26.53;16.47;;;;;;;9.29;51.33;96166.63;5028232;28;20422;-72
2024/03/09 06:32:06;;;;;;;27.40;15.30;;;;;;;9.37;50.83;96172.63;5029252;28;20431;-72
2024/03/09 06:34:31;;;;;;;21.93;15.23;;;;;;;9.51;50.56;96181.56;5029579;28;20451;-72
2024/03/09 06:36:57;;;;;;;24.10;15.80;;;;;;;9.58;50.32;96179.06;5036345;28;20676;-72
2024/03/09 06:39:25;;;;;;;25.80;16.70;;;;;;;9.73;50.00;96173.94;5030260;28;20239;-74
2024/03/09 06:41:52;;;;;;;21.20;15.20;;;;;;;9.85;49.30;96169.13;5030969;28;20191;-72
2024/03/09 06:44:18;;;;;;;25.67;15.50;;;;;;;9.98;49.38;96169.38;5030733;28;20433;-70
2024/03/09 06:46:43;;;;;;;23.27;16.00;;;;;;;10.02;49.35;96169.03;5032013;28;20450;-72
2024/03/09 06:49:09;;;;;;;20.70;14.77;;;;;;;10.05;47.97;96169.47;5037500;28;20453;-71
2024/03/09 06:51:34;;;;;;;24.83;14.70;;;;;;;10.01;48.63;96177.88;5036106;28;20208;-71
2024/03/09 06:54:00;;;;;;;24.23;15.73;;;;;;;10.15;48.89;96179.72;5030574;28;20732;-71
2024/03/09 06:56:26;;;;;;;26.23;15.97;;;;;;;10.23;48.47;96173.63;5030472;28;20211;-72
2024/03/09 06:58:53;;;;;;;23.77;15.47;;;;;;;10.39;48.45;96175.31;5039094;28;20212;-72
2024/03/09 07:01:24;;;;;;;23.83;15.97;;;;;;;10.37;47.91;96177.28;5037838;28;20456;-70
2024/03/09 07:03:49;;;;;;;21.50;15.27;;;;;;;10.41;47.86;96184.63;5034588;28;20475;-72
2024/03/09 07:06:15;;;;;;;28.37;16.50;;;;;;;10.53;48.49;96187.66;5029928;28;21006;-71
2024/03/09 07:08:42;;;;;;;22.73;16.40;;;;;;;10.69;47.50;96180.66;5011411;28;20186;-72
2024/03/09 07:11:08;;;;;;;24.30;14.50;;;;;;;10.70;47.78;96175.22;5028190;28;20188;-71
2024/03/09 07:13:34;;;;;;;25.20;17.27;;;;;;;10.71;47.47;96178.69;5036410;28;20434;-70
2024/03/09 07:15:59;;;;;;;20.33;15.00;;;;;;;10.70;47.80;96182.28;5035447;28;21176;-71
2024/03/09 07:18:25;;;;;;;22.40;14.87;;;;;;;10.63;47.48;96173.47;5032114;28;20672;-71
2024/03/09 07:20:52;;;;;;;22.67;15.53;;;;;;;10.51;47.55;96171.28;5035103;28;20715;-70
2024/03/09 07:23:17;;;;;;;24.83;15.93;;;;;;;10.46;47.89;96165.75;5015997;28;20234;-71
2024/03/09 07:25:43;;;;;;;23.70;15.23;;;;;;;10.38;48.24;96161.44;5029981;28;20450;-69
2024/03/09 07:28:08;;;;;;;22.97;16.70;;;;;;;10.49;48.22;96162.00;5031379;28;20203;-70
2024/03/09 07:30:36;;;;;;;25.93;16.57;;;;;;;10.44;48.77;96160.72;5037357;28;20183;-71
2024/03/09 07:33:02;;;;;;;23.70;16.90;;;;;;;10.42;48.84;96154.84;5017744;28;20188;-70
2024/03/09 07:35:29;;;;;;;23.10;16.60;;;;;;;10.26;49.21;96158.38;5024136;28;20446;-72
2024/03/09 07:37:58;;;;;;;23.50;15.90;;;;;;;10.37;49.23;96156.31;5021476;28;20188;-74
2024/03/09 07:40:29;;;;;;;24.87;15.50;;;;;;;10.52;52.80;96151.97;5026770;28;20455;-72
2024/03/09 07:42:55;;;;;;;24.20;15.80;;;;;;;10.55;48.70;96149.00;5021879;28;20423;-70
2024/03/09 07:45:22;;;;;;;25.07;16.40;;;;;;;10.47;48.61;96156.13;5023604;28;20472;-70
2024/03/09 07:47:49;;;;;;;28.73;17.57;;;;;;;10.56;48.90;96163.72;5031576;28;20183;-72
2024/03/09 07:50:16;;;;;;;26.60;17.80;;;;;;;10.40;48.85;96150.75;5031142;28;20509;-72
2024/03/09 07:52:43;;;;;;;29.20;17.37;;;;;;;10.38;49.24;96152.75;5029846;28;20426;-72
2024/03/09 07:55:09;;;;;;;25.00;16.23;;;;;;;10.48;49.49;96155.94;4996613;28;20480;-72
2024/03/09 07:57:35;;;;;;;26.00;15.97;;;;;;;10.51;49.26;96157.41;5022222;28;20427;-70
2024/03/09 08:00:00;;;;;;;27.10;18.47;;;;;;;10.64;49.55;96156.78;5019747;28;20532;-71
2024/03/09 08:02:26;;;;;;;25.87;16.70;;;;;;;10.74;49.61;96157.34;5028196;28;20267;-69
2024/03/09 08:04:54;;;;;;;26.77;17.10;;;;;;;10.85;50.14;96164.75;5023819;28;20305;-70
2024/03/09 08:07:20;;;;;;;25.97;17.00;;;;;;;10.97;49.46;96172.16;5030072;28;20184;-71
2024/03/09 08:09:45;;;;;;;25.73;17.70;;;;;;;11.17;49.35;96170.66;5020891;28;20411;-68
2024/03/09 08:12:10;;;;;;;24.97;16.97;;;;;;;11.42;48.94;96173.00;5016613;28;20314;-70
2024/03/09 08:14:36;;;;;;;25.53;18.03;;;;;;;11.67;48.26;96164.81;5022557;28;20798;-69
2024/03/09 08:17:02;;;;;;;21.90;16.30;;;;;;;11.89;48.09;96159.56;5026454;28;20214;-70
2024/03/09 08:19:27;;;;;;;22.67;16.73;;;;;;;12.18;47.28;96163.13;5029804;28;20207;-70
2024/03/09 08:21:53;;;;;;;22.73;16.30;;;;;;;12.43;46.63;96156.50;5037585;28;20472;-69
2024/03/09 08:24:18;;;;;;;26.63;16.50;;;;;;;12.77;45.93;96154.13;5021975;28;20227;-68
2024/03/09 08:26:45;;;;;;;26.67;15.97;;;;;;;13.09;45.46;96156.34;5030139;28;20277;-69
2024/03/09 08:29:15;;;;;;;21.60;15.53;;;;;;;13.39;44.52;96156.88;5023847;28;20226;-70
2024/03/09 08:31:42;;;;;;;22.40;15.83;;;;;;;13.79;43.96;96164.16;5026637;28;20423;-70
2024/03/09 08:34:07;;;;;;;21.43;15.47;;;;;;;13.97;42.54;96153.88;5028854;28;20852;-69
2024/03/09 08:36:34;;;;;;;24.10;15.93;;;;;;;14.25;42.57;96155.53;5038191;28;20453;-70
2024/03/09 08:39:00;;;;;;;22.17;15.83;;;;;;;14.47;42.24;96155.34;5044708;28;20207;-70
2024/03/09 08:41:27;;;;;;;20.40;14.77;;;;;;;14.76;41.38;96148.06;5033994;28;20430;-71
2024/03/09 08:43:53;;;;;;;21.73;15.10;;;;;;;15.04;41.47;96149.63;5036393;28;20287;-69
2024/03/09 08:46:18;;;;;;;27.60;14.93;;;;;;;15.38;40.54;96154.81;5028373;28;20879;-69
2024/03/09 08:48:44;;;;;;;22.30;14.60;;;;;;;15.64;39.92;96159.19;5030939;28;20184;-70
2024/03/09 08:51:09;;;;;;;26.03;15.03;;;;;;;15.99;39.70;96150.94;5028886;28;20188;-70
2024/03/09 08:53:35;;;;;;;24.63;15.23;;;;;;;16.39;39.29;96149.84;5026855;28;20206;-71
2024/03/09 08:56:03;;;;;;;21.37;14.87;;;;;;;16.83;39.25;96150.69;5036139;28;20270;-71
2024/03/09 08:58:30;;;;;;;20.90;15.47;;;;;;;17.10;38.15;96144.38;5023673;28;20796;-69
2024/03/09 09:00:56;;;;;;;18.60;14.80;;;;;;;17.53;38.12;96127.56;5034750;28;20423;-71
2024/03/09 09:03:23;;;;;;;21.00;15.33;;;;;;;17.69;37.58;96130.66;5029725;28;20436;-71
2024/03/09 09:05:49;;;;;;;19.40;14.20;;;;;;;18.08;37.35;96129.31;5019438;28;20446;-69
2024/03/09 09:08:24;;;;;;;17.73;13.80;;;;;;;18.53;36.79;96135.97;5025537;28;20437;-71
2024/03/09 09:10:54;;;;;;;21.73;14.70;;;;;;;18.54;35.41;96124.31;5031453;28;20176;-70
2024/03/09 09:13:21;;;;;;;16.20;12.57;;;;;;;18.58;34.51;96127.34;5036887;28;20417;-69
2024/03/09 09:15:47;;;;;;;20.43;12.60;;;;;;;18.60;34.50;96121.81;5031759;28;20541;-69
2024/03/09 09:18:15;;;;;;;17.77;12.97;;;;;;;18.42;33.90;96124.34;5028443;28;20943;-72
2024/03/09 09:20:41;;;;;;;19.07;13.33;;;;;;;18.73;34.87;96118.94;5037031;28;21129;-72
2024/03/09 09:23:10;;;;;;;18.10;13.53;;;;;;;18.97;34.38;96124.25;5034010;28;20427;-70
2024/03/09 09:25:41;;;;;;;20.17;14.37;;;;;;;18.98;33.20;96118.69;5022016;28;20290;-71
2024/03/09 09:28:08;;;;;;;14.50;10.90;;;;;;;19.07;32.49;96113.84;5032979;28;20422;-69
2024/03/09 09:30:34;;;;;;;16.47;11.40;;;;;;;18.97;33.00;96110.97;5031310;28;20788;-71
2024/03/09 09:32:59;;;;;;;15.80;11.70;;;;;;;19.10;32.10;96112.56;5039953;28;20433;-71
2024/03/09 09:35:25;;;;;;;16.43;11.60;;;;;;;19.05;32.88;96105.31;5028044;28;20446;-71
2024/03/09 09:37:52;;;;;;;13.70;10.40;;;;;;;19.14;33.09;96095.97;5036347;28;20194;-70
2024/03/09 09:40:18;;;;;;;15.67;11.73;;;;;;;19.27;33.61;96086.13;5028111;28;20196;-70
2024/03/09 09:42:44;;;;;;;15.70;12.53;;;;;;;19.62;33.66;96082.53;5029080;28;20453;-73
2024/03/09 09:45:17;;;;;;;18.13;12.50;;;;;;;19.83;32.88;96077.59;5035635;28;20179;-69
2024/03/09 09:47:45;;;;;;;17.43;11.13;;;;;;;20.32;32.69;96075.22;5026300;28;20541;-71
2024/03/09 09:50:12;;;;;;;11.00;9.40;;;;;;;20.53;30.48;96063.06;5031658;28;20418;-71
2024/03/09 09:52:38;;;;;;;13.03;9.60;;;;;;;20.59;30.20;96063.13;5051213;28;21010;-70
2024/03/09 09:55:04;;;;;;;11.07;9.17;;;;;;;20.34;30.69;96067.03;5030553;28;20418;-71
2024/03/09 09:57:31;;;;;;;19.53;9.13;;;;;;;20.35;30.88;96076.63;5026201;28;20437;-69
2024/03/09 09:59:56;;;;;;;11.80;9.33;;;;;;;20.21;30.76;96074.28;5028041;28;20210;-72
2024/03/09 10:02:22;;;;;;;14.77;10.40;;;;;;;20.42;31.64;96069.28;5035824;28;20423;-70
2024/03/09 10:04:50;;;;;;;14.93;9.70;;;;;;;20.83;30.84;96064.56;5028356;28;20186;-69
2024/03/09 10:07:15;;;;;;;11.53;8.80;;;;;;;19.97;30.25;96073.59;5035561;28;20211;-71
2024/03/09 10:09:41;;;;;;;12.63;9.23;;;;;;;19.13;31.31;96078.41;5023542;28;20423;-70
2024/03/09 10:12:21;;;;;;;13.63;9.93;;;;;;;19.40;31.88;96077.06;5027720;28;20607;-71
2024/03/09 10:14:46;;;;;;;10.93;8.50;;;;;;;19.64;32.11;96069.81;5024901;28;20198;-70
2024/03/09 10:17:14;;;;;;;11.13;8.37;;;;;;;20.08;31.54;96070.06;5029220;28;20438;-70
2024/03/09 10:19:39;;;;;;;10.63;8.47;;;;;;;20.31;30.56;96062.97;5033397;28;20203;-71
2024/03/09 10:22:05;;;;;;;11.83;8.03;;;;;;;20.42;29.87;96061.28;5030117;28;20441;-70
2024/03/09 10:24:30;;;;;;;10.63;8.70;;;;;;;20.50;29.99;96052.88;5027697;28;20282;-70
2024/03/09 10:27:06;;;;;;;9.37;8.37;;;;;;;20.79;30.79;96054.66;5031226;28;20634;-71
2024/03/09 10:29:31;;;;;;;11.17;8.10;;;;;;;21.07;30.47;96050.22;5034787;28;20181;-71
2024/03/09 10:31:58;;;;;;;11.60;8.80;;;;;;;21.08;30.24;96049.97;5030652;28;20434;-71
2024/03/09 10:34:28;;;;;;;11.40;9.00;;;;;;;20.79;29.60;96036.03;5027709;28;20214;-70
2024/03/09 10:36:55;;;;;;;16.83;9.27;;;;;;;21.01;30.77;96039.50;5027641;28;20439;-70
2024/03/09 10:39:20;;;;;;;12.00;8.27;;;;;;;21.26;30.33;96021.41;5027427;28;20540;-70
2024/03/09 10:41:49;;;;;;;9.47;7.70;;;;;;;21.51;30.02;96010.22;5037091;28;20521;-71
2024/03/09 10:44:18;;;;;;;9.63;8.63;;;;;;;21.68;28.99;96006.66;5030909;28;20195;-71
2024/03/09 10:46:47;;;;;;;12.73;8.50;;;;;;;21.72;28.49;95999.78;5038985;28;20537;-71
2024/03/09 10:49:18;;;;;;;11.73;8.47;;;;;;;21.82;27.77;95989.19;5030501;28;20423;-70
2024/03/09 10:51:52;;;;;;;11.93;8.43;;;;;;;21.45;28.47;95980.06;5028649;28;20520;-69
2024/03/09 10:54:45;;;;;;;10.23;8.10;;;;;;;21.58;28.99;95992.16;5032278;28;20476;-70
2024/03/09 10:57:15;;;;;;;8.13;6.27;;;;;;;21.66;28.37;95995.47;5034330;28;20470;-69
2024/03/09 10:59:42;;;;;;;7.50;6.40;;;;;;;21.36;27.41;95991.41;5039698;28;20462;-71
2024/03/09 11:02:08;;;;;;;9.90;6.50;;;;;;;21.46;27.67;95991.50;5026187;28;20430;-70
2024/03/09 11:04:37;;;;;;;10.53;6.20;;;;;;;21.57;28.10;96003.06;5029029;28;20459;-71
2024/03/09 11:07:03;;;;;;;8.93;5.80;;;;;;;21.61;27.99;95990.91;5027207;28;21033;-71
2024/03/09 11:09:29;;;;;;;7.70;6.90;;;;;;;21.62;27.68;95987.97;5025497;28;20424;-71
2024/03/09 11:11:56;;;;;;;9.70;7.23;;;;;;;21.73;27.42;95996.06;5038214;28;20187;-71
2024/03/09 11:14:23;;;;;;;9.23;7.23;;;;;;;21.55;27.60;95979.31;5035329;28;20195;-70
2024/03/09 11:16:55;;;;;;;9.43;7.37;;;;;;;21.84;28.08;95967.63;5031072;28;20457;-71
2024/03/09 11:19:21;;;;;;;8.70;7.27;;;;;;;22.04;27.56;95972.31;5030938;28;20458;-71
2024/03/09 11:21:51;;;;;;;7.30;6.60;;;;;;;22.28;27.89;95969.28;5032862;28;20417;-72
2024/03/09 11:24:18;;;;;;;11.00;6.50;;;;;;;22.59;28.80;95962.25;5031009;28;20484;-70
2024/03/09 11:26:52;;;;;;;7.77;6.03;;;;;;;22.52;26.45;95959.84;5044122;28;20460;-70